createdAt,value
2022-12-03T00:00:31.155Z,102371.94
2022-12-03T00:02:57.877Z,102377.81
2022-12-03T00:05:24.543Z,102371.66
2022-12-03T00:07:50.991Z,102374.00
2022-12-03T00:10:17.530Z,102342.56
2022-12-03T00:12:44.041Z,102362.59
2022-12-03T00:15:11.479Z,102362.94
2022-12-03T00:17:38.050Z,102374.94
2022-12-03T00:20:16.919Z,102373.22
2022-12-03T00:22:43.401Z,102346.63
2022-12-03T00:25:09.936Z,102365.50
2022-12-03T00:27:36.458Z,102362.41
2022-12-03T00:30:03.772Z,102346.66
2022-12-03T00:32:30.612Z,102366.41
2022-12-03T00:34:57.303Z,102361.41
2022-12-03T00:37:23.732Z,102336.50
2022-12-03T00:39:50.572Z,102362.72
2022-12-03T00:42:17.028Z,102358.72
2022-12-03T00:44:43.540Z,102365.06
2022-12-03T00:47:10.188Z,102351.19
2022-12-03T00:49:36.699Z,102356.72
2022-12-03T00:52:03.305Z,102343.25
2022-12-03T00:54:32.037Z,102343.56
2022-12-03T00:56:58.907Z,102347.91
2022-12-03T00:59:25.432Z,102347.47
2022-12-03T01:01:52.095Z,102346.97
2022-12-03T01:04:18.863Z,102347.06
2022-12-03T01:06:45.551Z,102314.03
2022-12-03T01:09:12.096Z,102335.75
2022-12-03T01:11:38.685Z,102340.19
2022-12-03T01:14:10.564Z,102351.81
2022-12-03T01:16:37.777Z,102339.78
2022-12-03T01:19:07.003Z,102303.97
2022-12-03T01:21:33.505Z,102332.34
2022-12-03T01:24:00.001Z,102319.88
2022-12-03T01:26:26.690Z,102330.59
2022-12-03T01:28:53.388Z,102330.91
2022-12-03T01:31:20.215Z,102326.91
2022-12-03T01:33:46.792Z,102330.19
2022-12-03T01:36:13.323Z,102325.31
2022-12-03T01:38:39.824Z,102279.22
2022-12-03T01:41:11.542Z,102318.66
2022-12-03T01:43:38.802Z,102333.94
2022-12-03T01:46:06.680Z,102319.69
2022-12-03T01:48:37.780Z,102322.25
2022-12-03T01:51:05.864Z,102318.16
2022-12-03T01:53:32.540Z,102313.41
2022-12-03T01:55:59.251Z,102324.84
2022-12-03T01:58:28.474Z,102325.69
2022-12-03T02:00:56.189Z,102313.94
2022-12-03T02:03:25.640Z,102292.22
2022-12-03T02:05:53.008Z,102330.47
2022-12-03T02:08:35.328Z,102287.84
2022-12-03T02:11:18.264Z,102333.19
2022-12-03T02:13:45.274Z,102313.78
2022-12-03T02:16:11.796Z,102328.81
2022-12-03T02:18:38.342Z,102315.44
2022-12-03T02:21:18.694Z,102322.84
2022-12-03T02:24:03.340Z,102323.75
2022-12-03T02:26:29.801Z,102324.97
2022-12-03T02:28:56.805Z,102320.03
2022-12-03T02:31:24.152Z,102317.47
2022-12-03T02:33:50.682Z,102318.41
2022-12-03T02:36:17.254Z,102320.75
2022-12-03T02:38:45.616Z,102317.97
2022-12-03T02:41:15.814Z,102294.34
2022-12-03T02:43:42.269Z,102299.72
2022-12-03T02:46:08.852Z,102289.69
2022-12-03T02:48:38.287Z,102308.16
2022-12-03T02:51:08.690Z,102308.38
2022-12-03T02:53:39.900Z,102296.28
2022-12-03T02:56:06.851Z,102317.97
2022-12-03T02:58:34.024Z,102311.06
2022-12-03T03:01:03.036Z,102310.97
2022-12-03T03:03:32.100Z,102316.31
2022-12-03T03:06:02.187Z,102287.00
2022-12-03T03:08:29.377Z,102316.75
2022-12-03T03:10:57.291Z,102276.13
2022-12-03T03:13:23.759Z,102309.63
2022-12-03T03:15:50.341Z,102305.63
2022-12-03T03:18:17.627Z,102282.84
2022-12-03T03:20:45.074Z,102267.25
2022-12-03T03:23:11.438Z,102307.56
2022-12-03T03:25:39.509Z,102263.31
2022-12-03T03:28:07.129Z,102292.81
2022-12-03T03:30:37.182Z,102264.06
2022-12-03T03:33:03.670Z,102293.25
2022-12-03T03:35:30.406Z,102281.31
2022-12-03T03:37:57.850Z,102292.94
2022-12-03T03:40:25.556Z,102280.81
2022-12-03T03:42:52.008Z,102284.56
2022-12-03T03:45:24.008Z,102253.25
2022-12-03T03:47:54.548Z,102281.91
2022-12-03T03:50:21.653Z,102284.50
2022-12-03T03:52:48.177Z,102285.41
2022-12-03T03:55:14.925Z,102280.88
2022-12-03T03:57:41.356Z,102254.19
2022-12-03T04:00:08.810Z,102281.91
2022-12-03T04:02:36.458Z,102285.81
2022-12-03T04:05:03.379Z,102270.41
2022-12-03T04:07:29.793Z,102269.16
2022-12-03T04:09:56.224Z,102287.88
2022-12-03T04:12:22.677Z,102277.38
2022-12-03T04:14:49.090Z,102273.81
2022-12-03T04:17:15.520Z,102269.84
2022-12-03T04:19:41.914Z,102232.88
2022-12-03T04:22:08.304Z,102269.66
2022-12-03T04:24:34.785Z,102266.63
2022-12-03T04:27:01.195Z,102257.53
2022-12-03T04:29:27.649Z,102229.63
2022-12-03T04:31:54.077Z,102222.63
2022-12-03T04:34:20.515Z,102261.84
2022-12-03T04:36:47.425Z,102254.13
2022-12-03T04:39:14.009Z,102229.88
2022-12-03T04:41:40.383Z,102256.16
2022-12-03T04:44:06.987Z,102241.06
2022-12-03T04:46:33.548Z,102233.69
2022-12-03T04:48:59.933Z,102251.34
2022-12-03T04:51:26.332Z,102252.53
2022-12-03T04:53:52.765Z,102256.28
2022-12-03T04:56:19.207Z,102233.34
2022-12-03T04:58:45.634Z,102251.38
2022-12-03T05:01:12.097Z,102249.97
2022-12-03T05:03:38.535Z,102254.31
2022-12-03T05:06:05.047Z,102214.41
2022-12-03T05:08:31.471Z,102248.28
2022-12-03T05:10:57.922Z,102251.28
2022-12-03T05:13:24.332Z,102242.50
2022-12-03T05:15:50.818Z,102219.88
2022-12-03T05:18:17.247Z,102241.44
2022-12-03T05:20:47.134Z,102208.16
2022-12-03T05:23:19.286Z,102241.69
2022-12-03T05:25:45.735Z,102245.44
2022-12-03T05:28:12.253Z,102211.75
2022-12-03T05:30:38.786Z,102231.06
2022-12-03T05:33:05.312Z,102206.19
2022-12-03T05:35:31.868Z,102203.63
2022-12-03T05:37:58.283Z,102239.13
2022-12-03T05:40:25.018Z,102223.75
2022-12-03T05:42:51.451Z,102199.31
2022-12-03T05:45:17.925Z,102227.59
2022-12-03T05:47:44.643Z,102224.44
2022-12-03T05:50:11.421Z,102230.34
2022-12-03T05:52:37.869Z,102222.84
2022-12-03T05:55:04.655Z,102220.22
2022-12-03T05:57:31.063Z,102234.16
2022-12-03T05:59:57.506Z,102226.25
2022-12-03T06:02:24.046Z,102229.97
2022-12-03T06:04:50.809Z,102230.63
2022-12-03T06:07:17.441Z,102217.66
2022-12-03T06:09:43.941Z,102231.41
2022-12-03T06:12:10.342Z,102223.41
2022-12-03T06:14:36.808Z,102228.44
2022-12-03T06:17:03.471Z,102235.84
2022-12-03T06:19:29.953Z,102231.47
2022-12-03T06:21:56.546Z,102232.28
2022-12-03T06:24:22.952Z,102217.75
2022-12-03T06:26:49.459Z,102229.38
2022-12-03T06:29:16.014Z,102230.75
2022-12-03T06:31:42.592Z,102230.03
2022-12-03T06:34:09.127Z,102228.22
2022-12-03T06:36:35.523Z,102225.75
2022-12-03T06:39:02.006Z,102218.69
2022-12-03T06:41:28.409Z,102197.94
2022-12-03T06:43:54.865Z,102221.75
2022-12-03T06:46:21.409Z,102195.97
2022-12-03T06:48:47.890Z,102220.72
2022-12-03T06:51:14.285Z,102226.75
2022-12-03T06:53:40.713Z,102193.50
2022-12-03T06:56:07.450Z,102223.34
2022-12-03T06:58:33.930Z,102194.75
2022-12-03T07:01:00.396Z,102218.50
2022-12-03T07:03:26.855Z,102225.47
2022-12-03T07:05:53.279Z,102201.28
2022-12-03T07:08:19.717Z,102223.16
2022-12-03T07:10:46.193Z,102195.91
2022-12-03T07:13:12.647Z,102226.63
2022-12-03T07:15:39.059Z,102221.78
2022-12-03T07:18:05.590Z,102222.19
2022-12-03T07:20:32.071Z,102228.94
2022-12-03T07:22:58.523Z,102200.06
2022-12-03T07:25:24.953Z,102203.44
2022-12-03T07:27:51.346Z,102221.06
2022-12-03T07:30:18.497Z,102220.78
2022-12-03T07:32:44.888Z,102223.91
2022-12-03T07:35:11.392Z,102225.75
2022-12-03T07:37:37.862Z,102220.50
2022-12-03T07:40:06.130Z,102205.66
2022-12-03T07:42:32.553Z,102206.59
2022-12-03T07:44:58.978Z,102206.25
2022-12-03T07:47:25.444Z,102227.47
2022-12-03T07:49:51.866Z,102236.81
2022-12-03T07:52:18.265Z,102207.16
2022-12-03T07:54:44.738Z,102229.44
2022-12-03T07:57:11.178Z,102195.91
2022-12-03T07:59:37.604Z,102222.25
2022-12-03T08:02:04.062Z,102198.91
2022-12-03T08:04:30.504Z,102202.78
2022-12-03T08:06:56.969Z,102199.50
2022-12-03T08:09:23.407Z,102214.94
2022-12-03T08:11:50.135Z,102220.78
2022-12-03T08:14:18.856Z,102179.63
2022-12-03T08:16:46.777Z,102187.91
2022-12-03T08:19:15.974Z,102213.19
2022-12-03T08:21:44.733Z,102198.63
2022-12-03T08:24:18.014Z,102213.66
2022-12-03T08:26:46.254Z,102212.84
2022-12-03T08:29:18.052Z,102207.53
2022-12-03T08:31:49.690Z,102213.53
2022-12-03T08:34:23.355Z,102217.38
2022-12-03T08:36:56.013Z,102202.25
2022-12-03T08:39:29.537Z,102205.50
2022-12-03T08:42:13.528Z,102202.66
2022-12-03T08:44:40.332Z,102182.91
2022-12-03T08:47:09.824Z,102216.78
2022-12-03T08:49:37.076Z,102204.41
2022-12-03T08:52:13.154Z,102208.06
2022-12-03T08:54:39.593Z,102206.72
2022-12-03T08:57:28.952Z,102209.28
2022-12-03T09:00:11.609Z,102207.84
2022-12-03T09:02:40.419Z,102222.34
2022-12-03T09:05:20.847Z,102212.63
2022-12-03T09:07:47.391Z,102210.69
2022-12-03T09:10:13.823Z,102216.22
2022-12-03T09:12:40.285Z,102183.44
2022-12-03T09:15:07.696Z,102213.81
2022-12-03T09:17:34.280Z,102210.63
2022-12-03T09:20:00.813Z,102210.25
2022-12-03T09:22:27.273Z,102192.84
2022-12-03T09:24:54.076Z,102183.38
2022-12-03T09:27:20.878Z,102178.03
2022-12-03T09:29:47.419Z,102206.38
2022-12-03T09:32:18.341Z,102207.09
2022-12-03T09:34:45.277Z,102212.91
2022-12-03T09:37:11.739Z,102193.56
2022-12-03T09:39:38.160Z,102215.69
2022-12-03T09:42:05.032Z,102205.38
2022-12-03T09:44:34.445Z,102175.00
2022-12-03T09:47:02.467Z,102197.50
2022-12-03T09:49:30.303Z,102192.59
2022-12-03T09:51:58.238Z,102173.31
2022-12-03T09:54:27.713Z,102163.56
2022-12-03T09:56:56.053Z,102182.91
2022-12-03T09:59:25.713Z,102194.81
2022-12-03T10:01:53.428Z,102154.31
2022-12-03T10:04:20.222Z,102182.22
2022-12-03T10:06:47.342Z,102156.13
2022-12-03T10:09:16.843Z,102143.44
2022-12-03T10:11:43.592Z,102168.19
2022-12-03T10:14:13.611Z,102170.56
2022-12-03T10:16:41.390Z,102172.53
2022-12-03T10:19:11.543Z,102156.38
2022-12-03T10:21:38.953Z,102139.63
2022-12-03T10:24:21.309Z,102139.19
2022-12-03T10:26:49.832Z,102154.63
2022-12-03T10:29:20.546Z,102164.31
2022-12-03T10:31:55.905Z,102161.53
2022-12-03T10:34:33.976Z,102150.88
2022-12-03T10:37:11.527Z,102149.44
2022-12-03T10:40:03.904Z,102145.91
2022-12-03T10:42:32.937Z,102127.91
2022-12-03T10:45:19.598Z,102137.47
2022-12-03T10:48:13.831Z,102132.97
2022-12-03T10:50:57.324Z,102111.41
2022-12-03T10:53:28.303Z,102107.00
2022-12-03T10:55:55.423Z,102121.00
2022-12-03T10:58:24.714Z,102122.81
2022-12-03T11:00:53.486Z,102126.41
2022-12-03T11:03:26.003Z,102114.25
2022-12-03T11:05:53.788Z,102088.00
2022-12-03T11:08:23.842Z,102097.75
2022-12-03T11:11:21.264Z,102112.97
2022-12-03T11:14:04.459Z,102101.97
2022-12-03T11:16:39.957Z,102058.78
2022-12-03T11:19:12.324Z,102090.63
2022-12-03T11:22:03.545Z,102084.09
2022-12-03T11:24:30.647Z,102078.81
2022-12-03T11:26:57.010Z,102081.72
2022-12-03T11:29:48.092Z,102083.66
2022-12-03T11:32:39.288Z,102081.53
2022-12-03T11:35:25.696Z,102057.88
2022-12-03T11:37:52.694Z,102076.53
2022-12-03T11:40:19.149Z,102077.06
2022-12-03T11:42:47.641Z,102065.72
2022-12-03T11:45:23.141Z,102065.47
2022-12-03T11:47:58.381Z,102043.09
2022-12-03T11:50:52.870Z,102060.81
2022-12-03T11:53:23.005Z,102034.50
2022-12-03T11:55:53.277Z,102062.97
2022-12-03T11:58:30.255Z,102058.91
2022-12-03T12:00:59.103Z,102044.38
2022-12-03T12:03:36.974Z,102066.19
2022-12-03T12:06:05.107Z,102059.63
2022-12-03T12:08:32.304Z,102057.63
2022-12-03T12:10:59.045Z,102027.19
2022-12-03T12:13:31.255Z,102047.00
2022-12-03T12:16:02.031Z,102052.59
2022-12-03T12:18:43.901Z,102024.72
2022-12-03T12:21:47.802Z,102040.31
2022-12-03T12:24:38.605Z,102047.59
2022-12-03T12:27:08.070Z,102042.53
2022-12-03T12:29:36.101Z,102030.97
2022-12-03T12:32:05.701Z,102042.22
2022-12-03T12:34:32.123Z,102035.78
2022-12-03T12:37:00.382Z,102002.72
2022-12-03T12:39:26.992Z,102012.41
2022-12-03T12:41:54.305Z,102033.63
2022-12-03T12:44:21.804Z,102014.00
2022-12-03T12:46:52.781Z,102022.31
2022-12-03T12:49:19.369Z,102008.63
2022-12-03T12:51:47.506Z,102007.78
2022-12-03T12:54:16.187Z,101984.38
2022-12-03T12:56:44.908Z,102012.16
2022-12-03T12:59:14.685Z,101993.72
2022-12-03T13:01:42.856Z,102001.84
2022-12-03T13:04:23.597Z,102007.69
2022-12-03T13:06:54.215Z,102019.41
2022-12-03T13:09:23.507Z,102022.66
2022-12-03T13:11:58.550Z,101986.16
2022-12-03T13:14:30.193Z,102016.69
2022-12-03T13:16:58.931Z,102017.97
2022-12-03T13:19:49.540Z,102005.44
2022-12-03T13:22:22.449Z,102007.22
2022-12-03T13:24:50.584Z,102011.63
2022-12-03T13:27:19.862Z,101999.69
2022-12-03T13:29:49.081Z,101990.66
2022-12-03T13:32:26.508Z,101994.91
2022-12-03T13:34:55.399Z,101960.66
2022-12-03T13:37:25.246Z,101993.41
2022-12-03T13:39:54.523Z,101960.03
2022-12-03T13:42:33.305Z,101982.50
2022-12-03T13:45:01.540Z,101981.72
2022-12-03T13:47:28.030Z,101978.19
2022-12-03T13:50:01.873Z,101978.81
2022-12-03T13:52:34.550Z,101952.47
2022-12-03T13:55:03.563Z,101971.00
2022-12-03T13:57:30.042Z,101979.22
2022-12-03T13:59:56.871Z,101974.22
2022-12-03T14:02:23.592Z,101952.69
2022-12-03T14:04:51.354Z,101982.41
2022-12-03T14:07:19.546Z,101967.03
2022-12-03T14:09:45.989Z,101973.16
2022-12-03T14:12:12.446Z,101974.63
2022-12-03T14:14:38.901Z,101961.03
2022-12-03T14:17:05.379Z,101980.47
2022-12-03T14:19:32.343Z,101951.91
2022-12-03T14:21:58.857Z,101960.81
2022-12-03T14:24:25.952Z,101973.22
2022-12-03T14:26:52.441Z,101944.91
2022-12-03T14:29:18.885Z,101973.81
2022-12-03T14:31:45.388Z,101974.63
2022-12-03T14:34:11.995Z,101969.47
2022-12-03T14:36:38.511Z,101969.13
2022-12-03T14:39:04.986Z,101965.31
2022-12-03T14:41:31.525Z,101966.13
2022-12-03T14:43:57.954Z,101937.31
2022-12-03T14:46:24.497Z,101945.16
2022-12-03T14:48:50.957Z,101920.50
2022-12-03T14:51:17.412Z,101930.78
2022-12-03T14:53:43.834Z,101965.19
2022-12-03T14:56:10.240Z,101972.09
2022-12-03T14:58:36.681Z,101961.34
2022-12-03T15:01:03.147Z,101957.13
2022-12-03T15:03:29.624Z,101945.44
2022-12-03T15:05:56.037Z,101925.06
2022-12-03T15:08:22.520Z,101962.59
2022-12-03T15:10:48.955Z,101926.44
2022-12-03T15:13:15.395Z,101953.16
2022-12-03T15:15:41.816Z,101950.91
2022-12-03T15:18:08.236Z,101952.19
2022-12-03T15:20:34.913Z,101944.72
2022-12-03T15:23:01.446Z,101950.50
2022-12-03T15:25:27.821Z,101949.97
2022-12-03T15:27:54.358Z,101915.00
2022-12-03T15:30:20.930Z,101931.84
2022-12-03T15:32:47.484Z,101931.50
2022-12-03T15:35:13.900Z,101942.19
2022-12-03T15:37:40.353Z,101959.72
2022-12-03T15:40:07.330Z,101954.56
2022-12-03T15:42:33.748Z,101928.31
2022-12-03T15:45:00.113Z,101946.22
2022-12-03T15:47:26.544Z,101952.19
2022-12-03T15:49:53.345Z,101960.59
2022-12-03T15:52:19.839Z,101956.25
2022-12-03T15:54:46.241Z,101949.63
2022-12-03T15:57:12.639Z,101930.47
2022-12-03T15:59:39.008Z,101937.44
2022-12-03T16:02:05.521Z,101949.88
2022-12-03T16:04:32.078Z,101957.91
2022-12-03T16:06:58.464Z,101946.66
2022-12-03T16:09:27.386Z,101928.97
2022-12-03T16:11:53.955Z,101960.94
2022-12-03T16:14:20.428Z,101931.53
2022-12-03T16:16:47.021Z,101952.13
2022-12-03T16:19:13.449Z,101954.00
2022-12-03T16:21:39.875Z,101956.81
2022-12-03T16:24:06.440Z,101951.22
2022-12-03T16:26:32.884Z,101949.50
2022-12-03T16:28:59.369Z,101953.81
2022-12-03T16:31:25.853Z,101950.66
2022-12-03T16:33:52.289Z,101946.00
2022-12-03T16:36:18.710Z,101950.97
2022-12-03T16:38:45.111Z,101945.06
2022-12-03T16:41:11.604Z,101956.50
2022-12-03T16:43:38.040Z,101942.53
2022-12-03T16:46:06.062Z,101957.69
2022-12-03T16:48:32.540Z,101921.00
2022-12-03T16:50:58.978Z,101946.59
2022-12-03T16:53:25.496Z,101948.56
2022-12-03T16:55:51.941Z,101923.59
2022-12-03T16:58:18.421Z,101931.44
2022-12-03T17:00:44.864Z,101948.66
2022-12-03T17:03:11.312Z,101955.66
2022-12-03T17:05:37.863Z,101945.97
2022-12-03T17:08:04.462Z,101908.75
2022-12-03T17:10:31.100Z,101910.72
2022-12-03T17:13:12.962Z,101937.56
2022-12-03T17:15:40.258Z,101920.50
2022-12-03T17:18:07.931Z,101946.88
2022-12-03T17:20:34.640Z,101940.25
2022-12-03T17:23:01.630Z,101944.94
2022-12-03T17:25:28.587Z,101932.06
2022-12-03T17:27:55.092Z,101950.91
2022-12-03T17:30:21.544Z,101952.78
2022-12-03T17:32:47.993Z,101935.47
2022-12-03T17:35:14.483Z,101913.34
2022-12-03T17:37:40.955Z,101911.13
2022-12-03T17:40:11.543Z,101946.78
2022-12-03T17:42:38.159Z,101939.44
2022-12-03T17:45:05.244Z,101941.97
2022-12-03T17:47:31.767Z,101949.13
2022-12-03T17:49:58.170Z,101938.84
2022-12-03T17:52:24.593Z,101958.88
2022-12-03T17:57:37.467Z,101943.84
2022-12-03T18:00:04.797Z,101946.59
2022-12-03T18:02:31.284Z,101922.13
2022-12-03T18:04:57.700Z,101942.91
2022-12-03T18:07:24.117Z,101933.22
2022-12-03T18:09:50.537Z,101929.97
2022-12-03T18:12:17.000Z,101898.22
2022-12-03T18:14:43.403Z,101933.63
2022-12-03T18:17:09.922Z,101904.00
2022-12-03T18:19:36.453Z,101898.72
2022-12-03T18:22:02.904Z,101924.53
2022-12-03T18:24:29.351Z,101914.41
2022-12-03T18:26:55.844Z,101891.31
2022-12-03T18:29:22.407Z,101926.56
2022-12-03T18:31:48.883Z,101926.50
2022-12-03T18:34:15.370Z,101928.16
2022-12-03T18:36:42.127Z,101915.81
2022-12-03T18:39:18.588Z,101902.66
2022-12-03T18:41:45.030Z,101913.66
2022-12-03T18:44:11.544Z,101929.19
2022-12-03T18:46:52.921Z,101902.19
2022-12-03T18:49:19.674Z,101924.78
2022-12-03T18:51:46.148Z,101926.41
2022-12-03T18:54:13.361Z,101921.81
2022-12-03T18:56:41.460Z,101925.84
2022-12-03T18:59:08.685Z,101906.44
2022-12-03T19:01:35.972Z,101896.50
2022-12-03T19:04:02.663Z,101919.41
2022-12-03T19:06:29.216Z,101926.66
2022-12-03T19:08:55.726Z,101921.66
2022-12-03T19:11:22.563Z,101918.28
2022-12-03T19:13:49.030Z,101891.25
2022-12-03T19:16:15.480Z,101905.88
2022-12-03T19:18:42.007Z,101918.38
2022-12-03T19:21:10.797Z,101913.09
2022-12-03T19:23:38.062Z,101912.88
2022-12-03T19:26:06.572Z,101918.38
2022-12-03T19:28:33.982Z,101898.59
2022-12-03T19:31:06.580Z,101911.22
2022-12-03T19:33:34.510Z,101901.19
2022-12-03T19:36:05.694Z,101902.59
2022-12-03T19:38:33.159Z,101913.44
2022-12-03T19:41:05.964Z,101894.31
2022-12-03T19:43:34.104Z,101910.88
2022-12-03T19:46:09.029Z,101916.59
2022-12-03T19:48:37.956Z,101898.59
2022-12-03T19:51:32.424Z,101905.06
2022-12-03T19:53:53.736Z,101899.78
2022-12-03T19:56:20.221Z,101900.84
2022-12-03T19:58:47.532Z,101899.66
2022-12-03T20:01:20.629Z,101871.91
2022-12-03T20:03:50.560Z,101893.63
2022-12-03T20:06:20.681Z,101890.03
2022-12-03T20:08:47.110Z,101888.66
2022-12-03T20:11:22.096Z,101888.44
2022-12-03T20:13:51.956Z,101858.34
2022-12-03T20:16:18.388Z,101882.94
2022-12-03T20:18:46.640Z,101849.94
2022-12-03T20:21:16.065Z,101872.06
2022-12-03T20:23:42.802Z,101852.25
2022-12-03T20:26:11.019Z,101878.72
2022-12-03T20:28:37.431Z,101845.94
2022-12-03T20:31:07.178Z,101872.06
2022-12-03T20:33:33.570Z,101888.63
2022-12-03T20:36:00.002Z,101883.50
2022-12-03T20:38:26.606Z,101890.75
2022-12-03T20:40:53.413Z,101895.75
2022-12-03T20:43:20.183Z,101861.13
2022-12-03T20:45:46.668Z,101854.16
2022-12-03T20:48:13.115Z,101878.00
2022-12-03T20:50:39.948Z,101859.25
2022-12-03T20:53:24.377Z,101858.66
2022-12-03T20:55:55.954Z,101869.28
2022-12-03T20:58:22.442Z,101847.56
2022-12-03T21:00:48.968Z,101869.88
2022-12-03T21:03:15.593Z,101834.56
2022-12-03T21:05:42.592Z,101856.94
2022-12-03T21:08:09.387Z,101834.91
2022-12-03T21:10:41.037Z,101872.00
2022-12-03T21:13:07.474Z,101844.47
2022-12-03T21:15:33.984Z,101832.50
2022-12-03T21:18:00.464Z,101866.31
2022-12-03T21:20:26.863Z,101865.34
2022-12-03T21:22:53.261Z,101874.22
2022-12-03T21:25:19.632Z,101865.72
2022-12-03T21:27:46.071Z,101857.50
2022-12-03T21:30:12.729Z,101867.94
2022-12-03T21:32:39.184Z,101866.59
2022-12-03T21:35:06.020Z,101865.47
2022-12-03T21:37:32.434Z,101863.03
2022-12-03T21:39:58.863Z,101836.22
2022-12-03T21:42:36.838Z,101858.81
2022-12-03T21:45:06.523Z,101861.13
2022-12-03T21:47:37.163Z,101859.44
2022-12-03T21:50:06.039Z,101853.84
2022-12-03T21:52:33.809Z,101845.78
2022-12-03T21:55:00.256Z,101865.34
2022-12-03T21:57:26.785Z,101835.06
2022-12-03T21:59:54.974Z,101868.13
2022-12-03T22:02:22.174Z,101857.25
2022-12-03T22:04:51.417Z,101854.81
2022-12-03T22:07:20.257Z,101870.16
2022-12-03T22:09:46.780Z,101879.75
2022-12-03T22:12:13.176Z,101840.56
2022-12-03T22:14:39.640Z,101876.22
2022-12-03T22:17:06.073Z,101883.72
2022-12-03T22:19:32.638Z,101865.41
2022-12-03T22:21:59.158Z,101868.47
2022-12-03T22:24:25.573Z,101866.09
2022-12-03T22:26:51.933Z,101855.91
2022-12-03T22:29:18.380Z,101879.44
2022-12-03T22:31:44.803Z,101871.09
2022-12-03T22:34:11.305Z,101863.28
2022-12-03T22:36:37.819Z,101845.78
2022-12-03T22:39:04.434Z,101872.81
2022-12-03T22:41:30.950Z,101855.81
2022-12-03T22:43:57.367Z,101864.53
2022-12-03T22:46:23.904Z,101865.81
2022-12-03T22:48:50.405Z,101827.38
2022-12-03T22:51:22.404Z,101859.53
2022-12-03T22:53:54.712Z,101857.78
2022-12-03T22:56:21.143Z,101850.03
2022-12-03T22:58:47.645Z,101826.16
2022-12-03T23:01:22.348Z,101845.69
2022-12-03T23:03:49.145Z,101828.66
2022-12-03T23:06:16.011Z,101851.22
2022-12-03T23:08:42.687Z,101849.94
2022-12-03T23:11:09.198Z,101846.66
2022-12-03T23:13:36.438Z,101845.50
2022-12-03T23:16:03.950Z,101849.38
2022-12-03T23:18:30.656Z,101854.91
2022-12-03T23:20:57.560Z,101854.13
2022-12-03T23:23:25.921Z,101849.00
2022-12-03T23:26:01.116Z,101842.94
2022-12-03T23:28:29.331Z,101840.81
2022-12-03T23:30:56.510Z,101854.97
2022-12-03T23:33:23.908Z,101853.91
2022-12-03T23:35:50.670Z,101847.50
2022-12-03T23:38:17.396Z,101835.41
2022-12-03T23:40:48.013Z,101845.16
2022-12-03T23:43:15.225Z,101841.66
2022-12-03T23:45:41.692Z,101830.41
2022-12-03T23:48:08.175Z,101845.25
2022-12-03T23:50:34.575Z,101837.31
2022-12-03T23:53:00.998Z,101795.56
2022-12-03T23:55:27.407Z,101801.53
2022-12-03T23:57:53.839Z,101825.84
